Shekhupura, Pakistan
Current Conditions -  °F | °C
As of 9:25 AM on Monday 22 Dec 2014 (Local Time) from OPLA Reporting Station
Haze Haze  
Wind Chill:   Ceiling: Unl
Heat Index:   Visibility: 0.5mi
Dew Point:   Wind: 5mph
Humidity: 87%   Direction: 180°S
Pressure: 30.06"   Gusts: NA
Location:  31.72°N, 73.98°E
Report Text: OPLA 220425Z 18004KT 0800 BR VV/// 07/05 Q1018 BECMG 1000
Loading
Personal Weather Stations






























Interactive Weather Map New forecast layout! Learn more

10-Day Weather Forecast

Advertisements
Track Severe Weather on mobile